createdAt,value
2017-11-20T00:01:11.912Z,96.60
2017-11-20T00:03:39.467Z,96.60
2017-11-20T00:06:07.012Z,96.60
2017-11-20T00:08:34.613Z,96.80
2017-11-20T00:11:02.156Z,96.90
2017-11-20T00:13:30.476Z,97.20
2017-11-20T00:15:58.076Z,97.20
2017-11-20T00:18:25.631Z,97.40
2017-11-20T00:20:53.173Z,97.40
2017-11-20T00:23:20.889Z,97.50
2017-11-20T00:25:48.432Z,97.40
2017-11-20T00:28:15.972Z,97.20
2017-11-20T00:30:44.344Z,97.10
2017-11-20T00:33:12.652Z,97.20
2017-11-20T00:35:40.205Z,97.20
2017-11-20T00:38:08.477Z,97.20
2017-11-20T00:40:36.036Z,97.30
2017-11-20T00:43:03.584Z,97.00
2017-11-20T00:45:31.185Z,97.10
2017-11-20T00:47:58.740Z,97.10
2017-11-20T00:50:26.281Z,97.00
2017-11-20T00:52:53.871Z,96.90
2017-11-20T00:55:21.426Z,96.80
2017-11-20T00:57:48.976Z,96.80
2017-11-20T01:00:17.352Z,96.50
2017-11-20T01:02:45.660Z,96.50
2017-11-20T01:05:13.204Z,96.20
2017-11-20T01:07:40.801Z,96.30
2017-11-20T01:10:09.108Z,96.50
2017-11-20T01:12:36.657Z,96.50
2017-11-20T01:15:05.020Z,96.70
2017-11-20T01:17:32.564Z,96.60
2017-11-20T01:20:00.110Z,96.70
2017-11-20T01:22:28.160Z,96.50
2017-11-20T01:24:55.708Z,96.60
2017-11-20T01:27:23.253Z,96.90
2017-11-20T01:29:51.041Z,97.10
2017-11-20T01:32:18.592Z,97.30
2017-11-20T01:34:46.140Z,97.70
2017-11-20T01:37:13.859Z,97.90
2017-11-20T01:39:41.411Z,98.00
2017-11-20T01:42:08.956Z,98.00
2017-11-20T01:44:36.659Z,98.10
2017-11-20T01:47:04.212Z,98.20
2017-11-20T01:49:31.765Z,98.20
2017-11-20T01:52:00.130Z,98.30
2017-11-20T01:54:27.676Z,98.30
2017-11-20T01:56:55.228Z,98.10
2017-11-20T01:59:22.828Z,98.10
2017-11-20T02:01:50.379Z,98.20
2017-11-20T02:04:17.924Z,98.30
2017-11-20T02:06:45.748Z,98.40
2017-11-20T02:09:13.300Z,98.30
2017-11-20T02:11:40.844Z,98.40
2017-11-20T02:14:08.652Z,98.40
2017-11-20T02:16:36.192Z,98.50
2017-11-20T02:19:03.744Z,98.50
2017-11-20T02:21:32.111Z,98.70
2017-11-20T02:23:59.655Z,98.70
2017-11-20T02:26:27.492Z,98.80
2017-11-20T02:28:55.079Z,98.90
2017-11-20T02:31:22.634Z,99.00
2017-11-20T02:33:51.050Z,99.50
2017-11-20T02:36:18.640Z,99.50
2017-11-20T02:38:46.232Z,99.60
2017-11-20T02:41:13.784Z,99.50
2017-11-20T02:43:41.385Z,99.40
2017-11-20T02:46:09.702Z,99.70
2017-11-20T02:48:38.010Z,99.80
2017-11-20T02:51:05.599Z,99.80
2017-11-20T02:53:33.141Z,99.80
2017-11-20T02:56:00.806Z,99.90
2017-11-20T02:58:29.155Z,99.90
2017-11-20T03:00:56.703Z,99.90
2017-11-20T03:03:24.252Z,99.90
2017-11-20T03:05:51.848Z,99.90
2017-11-20T03:08:19.412Z,99.90
2017-11-20T03:10:46.948Z,99.90
2017-11-20T03:13:15.487Z,99.90
2017-11-20T03:15:43.046Z,99.90
2017-11-20T03:18:10.606Z,99.50
2017-11-20T03:20:38.306Z,99.60
2017-11-20T03:23:05.857Z,99.50
2017-11-20T03:25:33.405Z,99.60
2017-11-20T03:28:01.773Z,99.50
2017-11-20T03:30:29.320Z,99.50
2017-11-20T03:32:56.873Z,99.50
2017-11-20T03:35:24.473Z,99.60
2017-11-20T03:37:52.019Z,99.80
2017-11-20T03:40:19.572Z,99.90
2017-11-20T03:42:47.379Z,99.90
2017-11-20T03:45:14.954Z,99.90
2017-11-20T03:47:42.500Z,99.90
2017-11-20T03:50:10.091Z,99.90
2017-11-20T03:52:37.640Z,99.90
2017-11-20T03:55:05.187Z,99.90
2017-11-20T03:57:33.556Z,99.90
2017-11-20T04:00:01.872Z,99.90
2017-11-20T04:02:29.433Z,99.90
2017-11-20T04:04:57.783Z,99.80
2017-11-20T04:07:25.320Z,99.80
2017-11-20T04:09:52.869Z,99.70
2017-11-20T04:12:20.690Z,99.70
2017-11-20T04:14:48.241Z,99.70
2017-11-20T04:17:15.780Z,99.70
2017-11-20T04:19:44.148Z,99.70
2017-11-20T04:22:11.710Z,99.70
2017-11-20T04:24:39.256Z,99.90
2017-11-20T04:27:06.857Z,99.90
2017-11-20T04:29:35.172Z,99.90
2017-11-20T04:32:03.484Z,99.90
2017-11-20T04:34:31.200Z,99.90
2017-11-20T04:36:59.695Z,99.90
2017-11-20T04:39:28.764Z,99.90
2017-11-20T04:41:57.899Z,99.90
2017-11-20T04:44:25.548Z,99.90
2017-11-20T04:46:53.095Z,99.90
2017-11-20T04:49:21.934Z,99.90
2017-11-20T04:51:50.100Z,99.90
2017-11-20T04:54:18.692Z,99.90
2017-11-20T04:56:47.507Z,99.90
2017-11-20T04:59:15.056Z,99.90
2017-11-20T05:01:42.601Z,99.90
2017-11-20T05:04:10.953Z,99.90
2017-11-20T05:06:38.500Z,99.90
2017-11-20T05:09:06.054Z,99.90
2017-11-20T05:11:33.660Z,99.90
2017-11-20T05:14:01.212Z,99.90
2017-11-20T05:16:28.754Z,99.90
2017-11-20T05:18:57.106Z,99.90
2017-11-20T05:21:24.658Z,99.90
2017-11-20T05:23:52.208Z,99.90
2017-11-20T05:26:19.791Z,99.90
2017-11-20T05:28:47.343Z,99.90
2017-11-20T05:31:14.894Z,99.90
2017-11-20T05:33:43.257Z,99.90
2017-11-20T05:36:12.317Z,99.90
2017-11-20T05:38:39.872Z,99.90
2017-11-20T05:41:08.282Z,99.90
2017-11-20T05:43:35.828Z,99.90
2017-11-20T05:46:04.141Z,99.90
2017-11-20T05:48:31.972Z,99.90
2017-11-20T05:50:59.519Z,99.80
2017-11-20T05:53:27.071Z,99.70
2017-11-20T05:55:54.864Z,99.50
2017-11-20T05:58:22.415Z,99.70
2017-11-20T06:00:49.960Z,99.80
2017-11-20T06:03:17.704Z,99.90
2017-11-20T06:05:45.248Z,99.90
2017-11-20T06:08:12.826Z,99.90
2017-11-20T06:10:40.442Z,99.90
2017-11-20T06:13:08.757Z,99.90
2017-11-20T06:15:36.308Z,99.90
2017-11-20T06:18:04.676Z,99.90
2017-11-20T06:20:32.233Z,99.90
2017-11-20T06:22:59.775Z,99.90
2017-11-20T06:25:27.378Z,99.90
2017-11-20T06:27:55.689Z,99.90
2017-11-20T06:30:23.992Z,99.90
2017-11-20T06:32:52.530Z,99.90
2017-11-20T06:35:20.068Z,99.90
2017-11-20T06:37:47.619Z,99.90
2017-11-20T06:40:16.081Z,99.90
2017-11-20T06:42:43.633Z,99.90
2017-11-20T06:45:11.180Z,99.90
2017-11-20T06:47:38.768Z,99.90
2017-11-20T06:50:06.322Z,99.90
2017-11-20T06:52:34.395Z,99.90
2017-11-20T06:55:02.208Z,99.90
2017-11-20T06:57:29.752Z,99.90
2017-11-20T06:59:57.297Z,99.90
2017-11-20T07:02:25.656Z,99.90
2017-11-20T07:04:53.201Z,99.90
2017-11-20T07:07:20.753Z,99.90
2017-11-20T07:09:48.492Z,99.90
2017-11-20T07:12:16.807Z,99.90
2017-11-20T07:14:44.377Z,99.90
2017-11-20T07:17:12.329Z,99.90
2017-11-20T07:19:39.885Z,99.90
2017-11-20T07:22:07.447Z,99.90
2017-11-20T07:24:35.037Z,99.90
2017-11-20T07:27:02.596Z,99.90
2017-11-20T07:29:42.132Z,99.90
2017-11-20T07:32:09.677Z,99.90
2017-11-20T07:34:49.363Z,99.90
2017-11-20T07:37:28.788Z,99.90
2017-11-20T07:40:08.238Z,99.90
2017-11-20T07:42:35.793Z,99.90
2017-11-20T07:45:03.364Z,99.90
2017-11-20T07:47:30.970Z,99.90
2017-11-20T07:49:58.526Z,99.90
2017-11-20T07:52:26.073Z,99.90
2017-11-20T07:54:54.428Z,99.90
2017-11-20T07:57:21.980Z,99.90
2017-11-20T07:59:49.529Z,99.70
2017-11-20T08:02:17.153Z,99.50
2017-11-20T08:04:44.700Z,99.30
2017-11-20T08:07:12.253Z,99.10
2017-11-20T08:09:40.041Z,99.30
2017-11-20T08:12:07.588Z,99.20
2017-11-20T08:14:35.136Z,99.20
2017-11-20T08:17:03.505Z,99.50
2017-11-20T08:19:31.049Z,99.50
2017-11-20T08:21:58.597Z,99.70
2017-11-20T08:24:26.209Z,99.70
2017-11-20T08:26:53.761Z,99.90
2017-11-20T08:29:21.318Z,99.70
2017-11-20T08:31:48.925Z,99.30
2017-11-20T08:34:16.481Z,99.20
2017-11-20T08:36:44.033Z,99.30
2017-11-20T08:39:11.620Z,99.50
2017-11-20T08:41:39.167Z,99.60
2017-11-20T08:44:06.713Z,99.60
2017-11-20T08:46:34.309Z,99.70
2017-11-20T08:49:01.851Z,99.90
2017-11-20T08:51:30.160Z,99.90
2017-11-20T08:53:57.820Z,99.90
2017-11-20T08:56:25.376Z,99.90
2017-11-20T08:58:52.919Z,99.90
2017-11-20T09:01:20.529Z,99.90
2017-11-20T09:03:48.844Z,99.90
2017-11-20T09:06:16.400Z,99.90
2017-11-20T09:08:44.002Z,99.90
2017-11-20T09:11:11.552Z,99.90
2017-11-20T09:13:39.096Z,99.90
2017-11-20T09:16:07.592Z,99.90
2017-11-20T09:18:35.900Z,99.80
2017-11-20T09:21:03.457Z,99.80
2017-11-20T09:23:31.058Z,99.70
2017-11-20T09:25:58.613Z,99.90
2017-11-20T09:28:26.164Z,99.90
2017-11-20T09:30:54.712Z,99.90
2017-11-20T09:33:22.256Z,99.90
2017-11-20T09:35:49.816Z,99.80
2017-11-20T09:38:17.414Z,99.80
2017-11-20T09:40:44.960Z,99.70
2017-11-20T09:43:12.508Z,99.60
2017-11-20T09:45:40.873Z,99.60
2017-11-20T09:48:08.430Z,99.60
2017-11-20T09:50:35.977Z,99.10
2017-11-20T09:53:03.568Z,99.30
2017-11-20T09:55:31.112Z,99.10
2017-11-20T09:57:58.698Z,99.00
2017-11-20T10:00:26.491Z,99.00
2017-11-20T10:02:54.032Z,99.00
2017-11-20T10:05:21.583Z,99.10
2017-11-20T10:07:49.944Z,99.10
2017-11-20T10:10:17.504Z,99.10
2017-11-20T10:12:45.041Z,99.40
2017-11-20T10:15:12.638Z,98.90
2017-11-20T10:17:40.184Z,98.80
2017-11-20T10:20:07.745Z,98.50
2017-11-20T10:22:35.335Z,98.60
2017-11-20T10:25:02.875Z,98.50
2017-11-20T10:27:30.416Z,98.50
2017-11-20T10:29:58.989Z,98.70
2017-11-20T10:32:26.545Z,98.70
2017-11-20T10:34:54.089Z,98.70
2017-11-20T10:37:21.690Z,98.70
2017-11-20T10:39:49.248Z,98.60
2017-11-20T10:42:16.800Z,98.50
2017-11-20T10:44:44.509Z,98.60
2017-11-20T10:47:12.095Z,98.60
2017-11-20T10:49:39.636Z,98.60
2017-11-20T10:52:07.428Z,98.70
2017-11-20T10:54:34.977Z,98.60
2017-11-20T10:57:02.520Z,98.80
2017-11-20T10:59:30.168Z,98.90
2017-11-20T11:01:57.732Z,99.00
2017-11-20T11:04:25.272Z,99.00
2017-11-20T11:06:52.880Z,98.90
2017-11-20T11:09:20.426Z,99.30
2017-11-20T11:11:47.972Z,99.40
2017-11-20T11:14:15.776Z,99.60
2017-11-20T11:16:43.332Z,99.70
2017-11-20T11:19:10.883Z,99.80
2017-11-20T11:21:38.489Z,99.70
2017-11-20T11:24:06.042Z,99.60
2017-11-20T11:26:33.592Z,99.90
2017-11-20T11:29:01.309Z,99.90
2017-11-20T11:31:28.866Z,99.90
2017-11-20T11:33:56.418Z,99.90
2017-11-20T11:36:24.191Z,99.70
2017-11-20T11:38:51.755Z,99.90
2017-11-20T11:41:20.072Z,99.90
2017-11-20T11:43:47.668Z,99.90
2017-11-20T11:46:15.215Z,99.90
2017-11-20T11:48:42.763Z,99.90
2017-11-20T11:51:10.370Z,99.90
2017-11-20T11:53:37.935Z,99.90
2017-11-20T11:56:05.488Z,99.90
2017-11-20T11:58:33.175Z,99.90
2017-11-20T12:01:00.718Z,99.90
2017-11-20T12:03:28.264Z,99.80
2017-11-20T12:05:56.005Z,99.90
2017-11-20T12:08:23.575Z,99.90
2017-11-20T12:10:51.121Z,99.30
2017-11-20T12:13:18.968Z,99.40
2017-11-20T12:15:47.286Z,99.50
2017-11-20T12:18:14.832Z,99.40
2017-11-20T12:20:43.427Z,98.90
2017-11-20T12:23:11.728Z,98.90
2017-11-20T12:25:39.272Z,98.90
2017-11-20T12:28:07.108Z,99.00
2017-11-20T12:30:34.652Z,98.90
2017-11-20T12:33:02.198Z,98.80
2017-11-20T12:35:30.752Z,98.40
2017-11-20T12:37:58.296Z,98.40
2017-11-20T12:40:25.867Z,98.50
2017-11-20T12:42:53.472Z,98.70
2017-11-20T12:45:21.008Z,98.50
2017-11-20T12:47:49.116Z,98.50
2017-11-20T12:50:17.128Z,98.50
2017-11-20T12:52:45.458Z,98.40
2017-11-20T12:55:14.189Z,98.40
2017-11-20T12:57:41.972Z,98.70
2017-11-20T13:00:10.752Z,98.40
2017-11-20T13:02:38.365Z,98.30
2017-11-20T13:05:06.063Z,98.40
2017-11-20T13:07:34.365Z,98.30
2017-11-20T13:10:02.156Z,98.30
2017-11-20T13:12:29.757Z,98.10
2017-11-20T13:14:57.296Z,98.20
2017-11-20T13:17:27.106Z,98.30
2017-11-20T13:19:55.334Z,98.20
2017-11-20T13:22:23.484Z,98.50
2017-11-20T13:24:51.024Z,98.40
2017-11-20T13:27:18.612Z,98.30
2017-11-20T13:29:46.919Z,98.50
2017-11-20T13:32:15.194Z,98.50
2017-11-20T13:34:43.565Z,98.20
2017-11-20T13:37:11.871Z,98.30
2017-11-20T13:39:40.182Z,97.90
2017-11-20T13:42:07.805Z,97.90
2017-11-20T13:44:35.343Z,97.80
2017-11-20T13:47:02.883Z,98.00
2017-11-20T13:49:30.710Z,98.10
2017-11-20T13:51:58.273Z,98.30
2017-11-20T13:54:25.813Z,98.90
2017-11-20T13:56:53.429Z,98.50
2017-11-20T13:59:21.236Z,98.50
2017-11-20T14:01:49.552Z,98.60
2017-11-20T14:04:17.251Z,98.60
2017-11-20T14:06:44.812Z,98.70
2017-11-20T14:09:12.364Z,98.70
2017-11-20T14:11:40.126Z,98.50
2017-11-20T14:14:07.668Z,98.50
2017-11-20T14:16:35.221Z,98.70
2017-11-20T14:19:02.836Z,98.50
2017-11-20T14:21:31.189Z,98.70
2017-11-20T14:23:58.731Z,99.00
2017-11-20T14:26:26.323Z,99.00
2017-11-20T14:28:53.864Z,99.00
2017-11-20T14:31:21.409Z,99.00
2017-11-20T14:33:49.952Z,98.90
2017-11-20T14:36:17.503Z,98.90
2017-11-20T14:38:45.056Z,98.70
2017-11-20T14:41:12.647Z,98.30
2017-11-20T14:43:40.201Z,98.20
2017-11-20T14:46:07.750Z,98.30
2017-11-20T14:48:36.845Z,98.70
2017-11-20T14:51:16.113Z,98.90
2017-11-20T14:53:46.167Z,98.80
2017-11-20T14:56:13.720Z,98.80
2017-11-20T14:58:41.269Z,98.80
2017-11-20T15:01:09.669Z,99.10
2017-11-20T15:03:38.009Z,98.90
2017-11-20T15:06:05.561Z,98.90
2017-11-20T15:08:33.260Z,98.80
2017-11-20T15:11:00.811Z,98.70
2017-11-20T15:13:28.365Z,99.00
2017-11-20T15:15:55.981Z,98.70
2017-11-20T15:18:23.533Z,99.00
2017-11-20T15:20:51.077Z,99.00
2017-11-20T15:23:18.801Z,99.10
2017-11-20T15:25:46.439Z,99.00
2017-11-20T15:28:13.997Z,99.00
2017-11-20T15:30:41.596Z,98.90
2017-11-20T15:33:09.139Z,99.20
2017-11-20T15:35:36.694Z,99.10
2017-11-20T15:38:05.064Z,99.10
2017-11-20T15:40:32.624Z,99.10
2017-11-20T15:43:01.695Z,99.50
2017-11-20T15:45:29.284Z,99.50
2017-11-20T15:47:56.832Z,99.10
2017-11-20T15:50:24.384Z,99.20
2017-11-20T15:52:53.133Z,99.30
2017-11-20T15:55:20.684Z,99.20
2017-11-20T15:57:49.104Z,99.30
2017-11-20T16:00:16.712Z,99.30
2017-11-20T16:02:45.133Z,99.10
2017-11-20T16:05:12.804Z,99.20
2017-11-20T16:07:40.548Z,99.10
2017-11-20T16:10:08.871Z,99.20
2017-11-20T16:12:37.392Z,99.20
2017-11-20T16:15:05.139Z,99.20
2017-11-20T16:17:34.372Z,99.40
2017-11-20T16:20:02.030Z,99.30
2017-11-20T16:22:29.752Z,99.20
2017-11-20T16:24:57.304Z,99.20
2017-11-20T16:27:24.864Z,99.10
2017-11-20T16:29:52.625Z,98.80
2017-11-20T16:32:20.184Z,99.00
2017-11-20T16:34:47.736Z,99.10
2017-11-20T16:37:15.359Z,98.90
2017-11-20T16:39:42.916Z,98.70
2017-11-20T16:42:10.479Z,98.90
2017-11-20T16:44:38.080Z,98.90
2017-11-20T16:47:05.634Z,98.90
2017-11-20T16:49:33.220Z,98.70
2017-11-20T16:52:00.943Z,98.90
2017-11-20T16:54:28.532Z,99.00
2017-11-20T16:57:08.116Z,98.90
2017-11-20T16:59:37.065Z,98.90
2017-11-20T17:02:26.217Z,97.90
2017-11-20T17:04:55.275Z,98.10
2017-11-20T17:07:22.832Z,98.00
2017-11-20T17:09:50.583Z,98.20
2017-11-20T17:12:18.904Z,98.10
2017-11-20T17:14:47.265Z,98.10
2017-11-20T17:17:15.820Z,98.20
2017-11-20T17:19:43.372Z,98.20
2017-11-20T17:22:10.918Z,98.10
2017-11-20T17:24:38.521Z,98.10
2017-11-20T17:27:06.080Z,98.10
2017-11-20T17:29:33.640Z,98.10
2017-11-20T17:32:01.240Z,98.20
2017-11-20T17:34:28.806Z,98.00
2017-11-20T17:36:56.401Z,97.90
2017-11-20T17:39:25.648Z,98.00
2017-11-20T17:41:53.980Z,98.00
2017-11-20T17:44:21.547Z,98.00
2017-11-20T17:46:49.332Z,98.00
2017-11-20T17:49:16.894Z,98.10
2017-11-20T17:51:44.460Z,98.10
2017-11-20T17:54:12.064Z,98.00
2017-11-20T17:56:39.728Z,98.20
2017-11-20T17:59:07.294Z,97.90
2017-11-20T18:01:34.897Z,98.00
2017-11-20T18:04:02.456Z,98.00
2017-11-20T18:06:30.012Z,97.90
2017-11-20T18:08:57.708Z,97.80
2017-11-20T18:11:25.345Z,98.20
2017-11-20T18:13:52.967Z,98.10
2017-11-20T18:16:21.385Z,98.20
2017-11-20T18:18:48.936Z,97.90
2017-11-20T18:21:17.265Z,97.80
2017-11-20T18:23:45.027Z,97.70
2017-11-20T18:26:12.578Z,98.40
2017-11-20T18:28:40.138Z,99.30
2017-11-20T18:31:08.517Z,98.30
2017-11-20T18:33:36.068Z,98.30
2017-11-20T18:36:03.682Z,98.50
2017-11-20T18:38:32.320Z,97.70
2017-11-20T18:40:59.880Z,97.60
2017-11-20T18:43:27.437Z,97.60
2017-11-20T18:45:55.144Z,97.80
2017-11-20T18:48:22.694Z,97.90
2017-11-20T18:50:50.257Z,97.00
2017-11-20T18:53:17.864Z,96.80
2017-11-20T18:55:45.434Z,97.10
2017-11-20T18:58:12.995Z,96.90
2017-11-20T19:00:52.653Z,97.00
2017-11-20T19:03:27.748Z,97.10
2017-11-20T19:06:07.809Z,97.50
2017-11-20T19:08:41.608Z,97.90
2017-11-20T19:11:09.208Z,97.90
2017-11-20T19:13:37.521Z,97.70
2017-11-20T19:16:05.072Z,97.70
2017-11-20T19:18:33.540Z,97.60
2017-11-20T19:21:01.089Z,97.60
2017-11-20T19:23:28.630Z,97.60
2017-11-20T19:25:56.331Z,97.50
2017-11-20T19:28:23.877Z,97.60
2017-11-20T19:30:51.435Z,97.50
2017-11-20T19:33:19.052Z,97.90
2017-11-20T19:35:47.350Z,97.70
2017-11-20T19:38:15.696Z,97.90
2017-11-20T19:40:43.305Z,97.90
2017-11-20T19:43:10.889Z,97.90
2017-11-20T19:45:38.444Z,97.90
2017-11-20T19:48:06.902Z,98.30
2017-11-20T19:50:34.484Z,98.20
2017-11-20T19:53:02.031Z,98.10
2017-11-20T19:55:29.848Z,97.90
2017-11-20T19:57:57.394Z,97.90
2017-11-20T20:00:24.951Z,97.70
2017-11-20T20:02:52.559Z,98.20
2017-11-20T20:05:20.105Z,97.90
2017-11-20T20:07:47.719Z,98.30
2017-11-20T20:10:15.320Z,98.10
2017-11-20T20:12:43.642Z,97.90
2017-11-20T20:15:23.102Z,97.80
2017-11-20T20:17:50.657Z,97.90
2017-11-20T20:20:18.213Z,97.80
2017-11-20T20:22:45.819Z,97.90
2017-11-20T20:25:13.374Z,98.00
2017-11-20T20:27:40.924Z,98.20
2017-11-20T20:30:09.292Z,98.80
2017-11-20T20:32:36.839Z,98.80
2017-11-20T20:35:04.389Z,98.80
2017-11-20T20:37:31.988Z,98.90
2017-11-20T20:39:59.536Z,98.90
2017-11-20T20:42:27.088Z,99.00
2017-11-20T20:44:54.800Z,98.80
2017-11-20T20:47:22.368Z,98.90
2017-11-20T20:49:49.927Z,98.90
2017-11-20T20:52:17.520Z,98.90
2017-11-20T20:54:45.072Z,98.60
2017-11-20T20:57:12.628Z,98.80
2017-11-20T20:59:40.236Z,98.90
2017-11-20T21:02:07.790Z,98.80
2017-11-20T21:04:35.343Z,98.80
2017-11-20T21:09:42.652Z,98.70
2017-11-20T21:12:16.789Z,98.60
2017-11-20T21:14:44.491Z,98.50
2017-11-20T21:17:12.041Z,98.40
2017-11-20T21:19:39.588Z,98.30
2017-11-20T21:22:08.048Z,98.50
2017-11-20T21:24:35.604Z,98.50
2017-11-20T21:27:03.161Z,98.50
2017-11-20T21:29:30.871Z,98.20
2017-11-20T21:31:58.433Z,98.50
2017-11-20T21:34:25.989Z,98.20
2017-11-20T21:36:53.768Z,98.30
2017-11-20T21:39:21.316Z,98.50
2017-11-20T21:41:48.859Z,98.50
2017-11-20T21:44:16.484Z,98.60
2017-11-20T21:46:44.033Z,98.40
2017-11-20T21:49:11.580Z,98.90
2017-11-20T21:51:39.189Z,98.90
2017-11-20T21:54:06.746Z,99.10
2017-11-20T21:56:34.301Z,98.60
2017-11-20T21:59:01.976Z,98.90
2017-11-20T22:01:29.593Z,98.70
2017-11-20T22:03:57.140Z,98.80
2017-11-20T22:06:24.939Z,98.60
2017-11-20T22:08:52.489Z,98.70
2017-11-20T22:11:20.037Z,98.80
2017-11-20T22:13:47.856Z,98.90
2017-11-20T22:16:15.425Z,99.30
2017-11-20T22:18:42.979Z,99.20
2017-11-20T22:21:10.599Z,99.50
2017-11-20T22:23:39.193Z,99.90
2017-11-20T22:26:06.740Z,99.60
2017-11-20T22:28:34.347Z,99.90
2017-11-20T22:31:02.661Z,99.90
2017-11-20T22:33:30.218Z,99.90
2017-11-20T22:35:57.825Z,99.70
2017-11-20T22:38:25.392Z,99.70
2017-11-20T22:40:52.962Z,99.80
2017-11-20T22:43:20.573Z,99.80
2017-11-20T22:45:48.299Z,99.90
2017-11-20T22:48:15.864Z,99.70
2017-11-20T22:50:43.483Z,99.90
2017-11-20T22:53:11.033Z,99.50
2017-11-20T22:55:38.588Z,99.60
2017-11-20T22:58:06.384Z,99.70
2017-11-20T23:00:34.203Z,99.80
2017-11-20T23:03:02.522Z,99.90
2017-11-20T23:05:30.144Z,99.80
2017-11-20T23:07:57.704Z,99.90
2017-11-20T23:10:25.271Z,99.70
2017-11-20T23:12:52.876Z,99.90
2017-11-20T23:15:21.208Z,99.90
2017-11-20T23:17:48.779Z,99.90
2017-11-20T23:20:16.373Z,99.90
2017-11-20T23:22:43.921Z,99.90
2017-11-20T23:25:11.472Z,99.90
2017-11-20T23:27:39.077Z,99.90
2017-11-20T23:30:06.636Z,99.90
2017-11-20T23:32:34.185Z,99.90
2017-11-20T23:35:02.000Z,99.90
2017-11-20T23:37:29.548Z,99.90
2017-11-20T23:39:57.108Z,99.90
2017-11-20T23:42:24.704Z,99.90
2017-11-20T23:44:52.589Z,99.90
2017-11-20T23:47:20.153Z,99.90
2017-11-20T23:49:47.897Z,99.90
2017-11-20T23:52:15.452Z,99.90
2017-11-20T23:54:43.774Z,99.90
2017-11-20T23:57:11.375Z,99.90
2017-11-20T23:59:38.924Z,99.90
